Time;durP1;ratioP1;P1;durP2;ratioP2;P2;SDS_P1;SDS_P2;PMS_P1;PMS_P2;Temp;Humidity;BMP_temperature;BMP_pressure;BME280_temperature;BME280_humidity;BME280_pressure;Samples;Min_cycle;Max_cycle;Signal;HPM_P1;HPM_P2
2022/08/19 00:01:57;;;;;;;19.20;17.33;;;23.50;93.20;;;;;;5073086;28;20540;-91
2022/08/19 00:04:27;;;;;;;18.30;16.70;;;23.50;93.30;;;;;;5073087;28;20445;-91
2022/08/19 00:06:54;;;;;;;17.90;16.30;;;23.50;93.50;;;;;;5072882;28;20444;-91
2022/08/19 00:09:23;;;;;;;18.43;16.73;;;23.50;93.50;;;;;;5073121;28;20452;-91
2022/08/19 00:11:50;;;;;;;17.93;16.33;;;23.50;93.60;;;;;;5072878;28;20452;-91
2022/08/19 00:14:18;;;;;;;18.50;17.00;;;23.50;93.80;;;;;;5077157;28;20486;-90
2022/08/19 00:16:48;;;;;;;18.93;17.33;;;23.40;93.80;;;;;;5086339;28;20445;-90
2022/08/19 00:19:15;;;;;;;18.57;16.97;;;23.40;94.10;;;;;;5080070;28;20833;-90
2022/08/19 00:21:43;;;;;;;18.57;16.90;;;23.30;94.20;;;;;;5074406;28;20524;-91
2022/08/19 00:24:12;;;;;;;20.13;18.13;;;23.30;94.40;;;;;;5073255;28;20451;-91
2022/08/19 00:26:39;;;;;;;17.93;16.43;;;23.30;94.60;;;;;;5072854;28;20440;-90
2022/08/19 00:29:08;;;;;;;18.47;16.67;;;23.20;94.60;;;;;;5072758;28;20440;-91
2022/08/19 00:31:35;;;;;;;18.63;16.93;;;23.20;94.80;;;;;;5073213;28;20447;-90
2022/08/19 00:34:04;;;;;;;19.23;17.43;;;23.20;95.00;;;;;;5076819;28;20468;-91
2022/08/19 00:36:32;;;;;;;18.27;16.67;;;23.10;95.10;;;;;;5091788;28;20456;-90
2022/08/19 00:38:59;;;;;;;18.33;16.80;;;23.10;95.20;;;;;;5092721;28;20457;-90
2022/08/19 00:41:26;;;;;;;18.73;17.10;;;23.10;95.30;;;;;;5081322;28;20470;-90
2022/08/19 00:44:03;;;;;;;19.40;17.70;;;23.10;95.40;;;;;;5077429;28;20452;-91
2022/08/19 00:46:31;;;;;;;19.60;17.90;;;23.10;95.40;;;;;;5072561;28;20943;-91
2022/08/19 00:48:58;;;;;;;19.03;17.23;;;23.10;95.60;;;;;;5072781;28;20458;-91
2022/08/19 00:51:28;;;;;;;18.17;16.57;;;23.10;95.70;;;;;;5072794;28;20468;-91
2022/08/19 00:53:56;;;;;;;20.13;18.13;;;23.10;95.80;;;;;;5094559;28;20454;-91
2022/08/19 00:56:23;;;;;;;18.40;16.80;;;23.10;95.90;;;;;;5090345;28;20438;-91
2022/08/19 00:58:50;;;;;;;19.13;17.37;;;23.00;95.90;;;;;;5094527;28;20459;-90
2022/08/19 01:01:17;;;;;;;18.73;16.90;;;23.10;96.00;;;;;;5074590;28;20456;-91
2022/08/19 01:03:43;;;;;;;18.17;16.60;;;23.10;96.00;;;;;;5073392;28;20455;-90
2022/08/19 01:06:10;;;;;;;18.97;17.43;;;23.10;95.90;;;;;;5076503;28;20440;-91
2022/08/19 01:08:38;;;;;;;19.13;17.10;;;23.10;95.90;;;;;;5080994;28;20439;-90
2022/08/19 01:11:06;;;;;;;17.97;16.23;;;23.10;96.10;;;;;;5073482;28;20472;-91
2022/08/19 01:13:34;;;;;;;17.97;16.37;;;23.00;96.20;;;;;;5073261;28;20459;-91
2022/08/19 01:16:05;;;;;;;19.00;17.40;;;23.00;96.20;;;;;;5076448;28;20486;-90
2022/08/19 01:18:34;;;;;;;20.20;18.40;;;23.10;96.30;;;;;;5076799;28;20428;-90
2022/08/19 01:21:06;;;;;;;19.40;17.70;;;23.00;96.30;;;;;;5093320;28;20483;-90
2022/08/19 01:23:43;;;;;;;18.13;16.43;;;23.00;96.50;;;;;;5087739;28;20486;-91
2022/08/19 01:26:14;;;;;;;17.60;16.10;;;23.00;96.50;;;;;;5076769;28;20497;-90
2022/08/19 01:28:42;;;;;;;19.93;18.33;;;23.10;96.50;;;;;;5082652;28;20432;-92
2022/08/19 01:31:11;;;;;;;19.87;17.90;;;23.00;96.70;;;;;;5085609;28;20479;-90
2022/08/19 01:33:38;;;;;;;18.87;17.23;;;22.90;96.70;;;;;;5082133;28;20450;-91
2022/08/19 01:36:16;;;;;;;19.80;17.87;;;22.90;96.80;;;;;;5097712;28;21091;-90
2022/08/19 01:38:45;;;;;;;18.77;17.07;;;22.90;97.10;;;;;;5101377;28;20424;-90
2022/08/19 01:41:13;;;;;;;19.73;17.90;;;22.80;97.20;;;;;;5101251;28;20440;-91
2022/08/19 01:43:40;;;;;;;20.43;17.93;;;22.80;97.30;;;;;;5095936;28;20454;-91
2022/08/19 01:46:07;;;;;;;20.20;18.40;;;22.80;97.50;;;;;;5095996;28;20444;-90
2022/08/19 01:48:36;;;;;;;18.90;17.27;;;22.80;97.60;;;;;;5101468;28;20420;-90
2022/08/19 01:51:03;;;;;;;20.10;18.20;;;22.80;97.70;;;;;;5100174;28;20466;-90
2022/08/19 01:53:30;;;;;;;19.77;17.87;;;22.80;97.80;;;;;;5087759;28;20447;-90
2022/08/19 01:55:58;;;;;;;21.50;19.60;;;22.80;97.80;;;;;;5075930;28;20479;-91
2022/08/19 01:58:30;;;;;;;19.93;17.90;;;22.80;97.90;;;;;;5076129;28;20848;-91
2022/08/19 02:00:57;;;;;;;20.13;18.00;;;22.80;97.90;;;;;;5076387;28;20831;-90
2022/08/19 02:03:24;;;;;;;20.30;18.40;;;22.80;98.00;;;;;;5075770;28;20451;-91
2022/08/19 02:05:56;;;;;;;22.73;20.60;;;22.80;98.50;;;;;;5075816;28;20447;-91
2022/08/19 02:08:23;;;;;;;20.23;18.37;;;22.80;98.30;;;;;;5075582;28;20448;-90
2022/08/19 02:10:50;;;;;;;22.70;20.50;;;22.80;98.50;;;;;;5075790;28;20475;-91
2022/08/19 02:13:18;;;;;;;22.00;19.90;;;22.80;98.60;;;;;;5099491;28;20470;-90
2022/08/19 02:15:45;;;;;;;21.43;19.47;;;22.70;98.70;;;;;;5100358;28;20467;-91
2022/08/19 02:18:12;;;;;;;23.00;20.77;;;22.70;98.90;;;;;;5101223;28;20424;-91
2022/08/19 02:20:41;;;;;;;21.10;19.10;;;22.70;99.10;;;;;;5097959;28;20528;-91
2022/08/19 02:23:08;;;;;;;23.00;20.87;;;22.60;99.30;;;;;;5077603;28;20479;-90
2022/08/19 02:25:35;;;;;;;22.80;20.60;;;22.70;99.40;;;;;;5075985;28;20447;-90
2022/08/19 02:28:02;;;;;;;22.73;20.63;;;22.60;99.60;;;;;;5075262;28;20454;-90
2022/08/19 02:30:30;;;;;;;22.03;19.93;;;22.60;99.80;;;;;;5075545;28;20499;-91
2022/08/19 02:32:57;;;;;;;24.63;22.37;;;22.50;99.90;;;;;;5074994;28;20451;-91
2022/08/19 02:35:25;;;;;;;23.80;21.67;;;22.50;99.90;;;;;;5080759;28;20570;-91
2022/08/19 02:40:37;;;;;;;24.37;22.00;;;22.50;99.90;;;;;;5080708;28;20524;-91
2022/08/19 02:43:07;;;;;;;24.43;22.03;;;22.50;99.90;;;;;;5076437;28;20452;-91
2022/08/19 02:45:36;;;;;;;24.73;21.40;;;22.40;99.90;;;;;;5087551;28;20511;-90
2022/08/19 02:48:05;;;;;;;24.90;22.40;;;22.40;99.90;;;;;;5099618;28;20522;-91
2022/08/19 02:50:33;;;;;;;26.10;23.67;;;22.50;99.90;;;;;;5080710;28;20452;-91
2022/08/19 02:52:59;;;;;;;24.37;22.07;;;22.40;99.90;;;;;;5093096;28;20424;-90
2022/08/19 02:55:26;;;;;;;26.97;24.40;;;22.40;99.90;;;;;;5098082;28;20480;-90
2022/08/19 02:57:53;;;;;;;23.60;21.40;;;22.40;99.90;;;;;;5080069;28;20451;-91
2022/08/19 03:00:20;;;;;;;26.70;24.10;;;22.30;99.90;;;;;;5078695;28;20471;-90
2022/08/19 03:02:48;;;;;;;27.27;24.67;;;22.30;99.90;;;;;;5079826;28;20448;-91
2022/08/19 03:05:15;;;;;;;26.83;24.43;;;22.20;99.90;;;;;;5074757;28;20463;-91
2022/08/19 03:07:42;;;;;;;25.37;23.07;;;22.20;99.90;;;;;;5074849;28;20444;-90
2022/08/19 03:10:09;;;;;;;26.37;23.80;;;22.20;99.90;;;;;;5095355;28;20458;-90
2022/08/19 03:12:38;;;;;;;26.53;23.93;;;22.10;99.90;;;;;;5080476;28;20814;-90
2022/08/19 03:15:06;;;;;;;27.13;24.43;;;22.00;99.90;;;;;;5075380;28;20475;-91
2022/08/19 03:17:32;;;;;;;27.47;24.97;;;21.90;99.90;;;;;;5078444;28;20471;-91
2022/08/19 03:20:01;;;;;;;26.67;23.83;;;22.00;99.90;;;;;;5076356;28;20464;-90
2022/08/19 03:22:28;;;;;;;26.90;24.37;;;22.00;99.90;;;;;;5075211;28;20450;-90
2022/08/19 03:24:55;;;;;;;27.77;24.97;;;22.00;99.90;;;;;;5076181;28;20444;-90
2022/08/19 03:27:22;;;;;;;29.23;26.37;;;22.00;99.90;;;;;;5075387;28;20456;-90
2022/08/19 03:29:48;;;;;;;26.90;24.17;;;22.00;99.90;;;;;;5075838;28;20464;-90
2022/08/19 03:32:15;;;;;;;28.30;25.50;;;22.00;99.90;;;;;;5075713;28;20830;-90
2022/08/19 03:34:42;;;;;;;26.90;24.40;;;22.00;99.90;;;;;;5074442;28;20436;-90
2022/08/19 03:37:12;;;;;;;27.80;25.20;;;22.00;99.90;;;;;;5074014;28;20455;-91
2022/08/19 03:39:40;;;;;;;26.97;24.33;;;22.00;99.90;;;;;;5075049;28;20472;-91
2022/08/19 03:42:07;;;;;;;26.03;23.73;;;21.90;99.90;;;;;;5075643;28;20468;-91
2022/08/19 03:44:36;;;;;;;30.07;27.07;;;22.00;99.90;;;;;;5074996;28;20440;-91
2022/08/19 03:47:06;;;;;;;26.70;24.20;;;22.00;99.90;;;;;;5079900;28;20447;-90
2022/08/19 03:49:34;;;;;;;28.80;25.97;;;21.90;99.90;;;;;;5098134;28;20463;-91
2022/08/19 03:52:01;;;;;;;28.97;26.13;;;21.90;99.90;;;;;;5080348;28;20803;-90
2022/08/19 03:54:29;;;;;;;30.00;27.17;;;21.90;99.90;;;;;;5074441;28;20445;-91
2022/08/19 03:56:58;;;;;;;29.27;26.40;;;22.00;99.90;;;;;;5074512;28;20490;-91
2022/08/19 03:59:27;;;;;;;28.33;25.43;;;21.90;99.90;;;;;;5074366;28;20964;-90
2022/08/19 04:01:55;;;;;;;29.60;26.93;;;21.90;99.90;;;;;;5074339;28;20444;-90
2022/08/19 04:04:22;;;;;;;27.30;24.70;;;21.90;99.90;;;;;;5075973;28;20459;-90
2022/08/19 04:06:49;;;;;;;30.03;26.80;;;21.90;99.90;;;;;;5080161;28;20979;-90
2022/08/19 04:09:16;;;;;;;29.57;26.87;;;21.80;99.90;;;;;;5082655;28;20440;-91
2022/08/19 04:11:46;;;;;;;27.97;25.27;;;21.80;99.90;;;;;;5074729;28;20452;-90
2022/08/19 04:14:15;;;;;;;31.10;28.20;;;21.80;99.90;;;;;;5074400;28;20468;-91
2022/08/19 04:16:43;;;;;;;29.13;26.53;;;21.80;99.90;;;;;;5074624;28;20475;-90
2022/08/19 04:19:10;;;;;;;30.07;27.37;;;21.80;99.90;;;;;;5091223;28;20448;-91
2022/08/19 04:21:37;;;;;;;29.47;26.53;;;21.90;99.90;;;;;;5060301;22;20477;-89
2022/08/19 04:24:04;;;;;;;29.17;26.27;;;21.90;99.90;;;;;;5035288;28;20430;-88
2022/08/19 04:26:35;;;;;;;31.07;28.17;;;21.90;99.90;;;;;;5035620;28;20499;-88
2022/08/19 04:29:07;;;;;;;29.80;26.90;;;21.80;99.90;;;;;;5036189;28;20457;-88
2022/08/19 04:31:35;;;;;;;31.17;27.93;;;21.80;99.90;;;;;;5035336;28;20485;-88
2022/08/19 04:34:05;;;;;;;30.30;27.57;;;21.70;99.90;;;;;;5036654;28;20470;-87
2022/08/19 04:36:33;;;;;;;31.67;28.67;;;21.80;99.90;;;;;;5036917;28;20488;-88
2022/08/19 04:39:03;;;;;;;30.70;27.70;;;21.80;99.90;;;;;;5035415;28;20485;-88
2022/08/19 04:44:17;;;;;;;31.30;27.57;;;21.80;99.90;;;;;;5036484;28;20937;-87
2022/08/19 04:46:45;;;;;;;29.10;26.30;;;21.80;99.90;;;;;;5034969;28;20449;-87
2022/08/19 04:49:12;;;;;;;30.87;27.70;;;21.90;99.90;;;;;;5034676;28;20441;-88
2022/08/19 04:51:41;;;;;;;30.17;27.27;;;21.90;99.90;;;;;;5035999;28;20474;-88
2022/08/19 04:54:09;;;;;;;29.70;26.90;;;21.90;99.90;;;;;;5035211;28;20457;-88
2022/08/19 04:56:36;;;;;;;30.33;27.17;;;21.90;99.90;;;;;;5042329;28;20466;-88
2022/08/19 04:59:04;;;;;;;30.90;27.80;;;21.90;99.90;;;;;;5057001;28;20436;-89
2022/08/19 05:01:35;;;;;;;30.80;28.07;;;21.90;99.90;;;;;;5049232;28;20460;-89
2022/08/19 05:04:04;;;;;;;29.20;26.50;;;21.90;99.90;;;;;;5055381;28;20520;-88
2022/08/19 05:06:33;;;;;;;32.60;29.60;;;21.90;99.90;;;;;;5047046;28;20449;-88
2022/08/19 05:09:00;;;;;;;30.97;28.07;;;21.90;99.90;;;;;;5040709;28;20486;-89
2022/08/19 05:11:30;;;;;;;31.87;28.90;;;21.90;99.90;;;;;;5035515;28;20500;-87
2022/08/19 05:13:58;;;;;;;31.43;28.43;;;21.90;99.90;;;;;;5039924;28;20464;-88
2022/08/19 05:16:27;;;;;;;30.30;27.67;;;21.90;99.90;;;;;;5034657;28;21002;-88
2022/08/19 05:24:26;;;;;;;31.53;28.57;;;22.00;99.90;;;;;;5035423;28;20487;-88
2022/08/19 05:26:56;;;;;;;30.83;27.87;;;22.00;99.90;;;;;;5051804;28;20452;-88
2022/08/19 05:29:24;;;;;;;29.53;26.83;;;22.00;99.90;;;;;;5035282;28;20449;-89
2022/08/19 05:31:52;;;;;;;30.93;28.03;;;22.00;99.90;;;;;;5034499;28;20466;-88
2022/08/19 05:34:24;;;;;;;30.10;27.20;;;22.00;99.90;;;;;;5036031;28;20442;-88
2022/08/19 05:36:55;;;;;;;31.03;28.00;;;22.00;99.90;;;;;;5040973;28;20466;-88
2022/08/19 05:39:22;;;;;;;29.43;26.63;;;22.00;99.90;;;;;;5056593;28;20493;-89
2022/08/19 05:41:50;;;;;;;30.53;27.73;;;22.00;99.90;;;;;;5057082;28;20469;-89
2022/08/19 05:44:18;;;;;;;29.97;27.33;;;22.00;99.90;;;;;;5057352;28;20465;-90
2022/08/19 05:46:46;;;;;;;31.40;28.37;;;22.00;99.90;;;;;;5057872;28;20505;-90
2022/08/19 05:49:14;;;;;;;30.37;27.67;;;22.10;99.90;;;;;;5054447;28;20453;-88
2022/08/19 05:51:44;;;;;;;29.87;26.87;;;22.10;99.90;;;;;;5053514;28;20470;-88
2022/08/19 05:54:13;;;;;;;31.07;28.27;;;22.10;99.90;;;;;;5049039;28;20518;-89
2022/08/19 05:56:43;;;;;;;31.80;28.80;;;22.10;99.90;;;;;;5041786;28;20847;-88
2022/08/19 05:59:12;;;;;;;32.53;29.20;;;22.10;99.90;;;;;;5036627;28;20449;-88
2022/08/19 06:01:40;;;;;;;32.40;29.50;;;22.10;99.90;;;;;;5039024;28;20465;-86
2022/08/19 06:04:08;;;;;;;28.87;26.17;;;22.10;99.90;;;;;;5044361;28;20441;-88
2022/08/19 06:06:35;;;;;;;30.80;28.00;;;22.10;99.90;;;;;;5056806;28;20436;-88
2022/08/19 06:09:05;;;;;;;30.13;27.33;;;22.10;99.90;;;;;;5055735;28;20452;-87
2022/08/19 06:11:38;;;;;;;30.40;27.80;;;22.00;99.90;;;;;;5055414;28;20468;-88
2022/08/19 06:14:08;;;;;;;32.00;27.67;;;22.10;99.90;;;;;;5055549;28;20887;-89
2022/08/19 06:16:35;;;;;;;31.37;28.57;;;22.10;99.90;;;;;;5055417;28;20523;-87
2022/08/19 06:19:06;;;;;;;30.07;27.17;;;22.00;99.90;;;;;;5055870;28;20767;-87
2022/08/19 06:21:33;;;;;;;30.10;27.27;;;22.00;99.90;;;;;;5078150;28;20531;-89
2022/08/19 06:24:00;;;;;;;30.83;28.03;;;22.00;99.90;;;;;;5078955;28;20449;-86
2022/08/19 06:26:28;;;;;;;31.17;28.37;;;22.00;99.90;;;;;;5064338;28;20467;-85
2022/08/19 06:28:55;;;;;;;35.10;31.70;;;22.00;99.90;;;;;;5055748;28;20531;-86
2022/08/19 06:31:28;;;;;;;31.70;28.63;;;21.80;99.90;;;;;;5055631;28;20475;-86
2022/08/19 06:33:57;;;;;;;33.87;30.47;;;21.80;99.90;;;;;;5055904;28;20813;-86
2022/08/19 06:36:31;;;;;;;33.33;30.23;;;21.70;99.90;;;;;;5068820;28;20473;-85
2022/08/19 06:41:49;;;;;;;33.13;29.77;;;21.50;99.90;;;;;;5072958;28;20464;-86
2022/08/19 06:44:16;;;;;;;33.47;30.33;;;21.60;99.90;;;;;;5071001;28;20445;-84
2022/08/19 06:46:48;;;;;;;33.80;30.20;;;21.60;99.90;;;;;;5054542;28;20451;-83
2022/08/19 06:49:15;;;;;;;33.70;30.37;;;21.60;99.90;;;;;;5055289;28;20497;-85
2022/08/19 06:51:43;;;;;;;33.73;30.63;;;21.60;99.90;;;;;;5065474;28;20456;-81
2022/08/19 06:54:11;;;;;;;31.97;29.13;;;21.70;99.90;;;;;;5079072;28;20440;-83
2022/08/19 06:56:38;;;;;;;33.73;30.13;;;21.70;99.90;;;;;;5078097;28;20489;-81
2022/08/19 06:59:09;;;;;;;32.37;29.00;;;21.80;99.90;;;;;;5059021;28;20946;-82
2022/08/19 07:01:37;;;;;;;33.37;30.10;;;21.80;99.90;;;;;;5055196;28;20535;-82
2022/08/19 07:04:06;;;;;;;33.00;29.90;;;21.90;99.90;;;;;;5055282;28;20953;-87
2022/08/19 07:06:32;;;;;;;31.63;28.53;;;21.90;99.90;;;;;;5054630;28;20445;-85
2022/08/19 07:08:59;;;;;;;32.67;29.43;;;22.00;99.90;;;;;;5054823;28;20445;-86
2022/08/19 07:11:26;;;;;;;30.30;27.60;;;22.00;99.90;;;;;;5056097;28;20473;-88
2022/08/19 07:13:56;;;;;;;31.97;28.70;;;22.00;99.90;;;;;;5057024;28;20461;-85
2022/08/19 07:16:24;;;;;;;32.53;29.23;;;22.10;99.90;;;;;;5059528;28;20519;-87
2022/08/19 07:18:55;;;;;;;30.83;27.70;;;22.10;99.90;;;;;;5077083;28;20424;-87
2022/08/19 07:21:26;;;;;;;30.83;27.97;;;22.20;99.90;;;;;;5078661;28;20477;-84
2022/08/19 07:23:53;;;;;;;30.97;28.17;;;22.20;99.90;;;;;;5078808;28;20477;-85
2022/08/19 07:26:26;;;;;;;29.70;27.03;;;22.20;99.90;;;;;;5068291;28;20448;-88
2022/08/19 07:28:53;;;;;;;32.07;29.17;;;22.20;99.90;;;;;;5056926;28;20455;-87
2022/08/19 07:31:22;;;;;;;28.70;25.67;;;22.20;99.90;;;;;;5057147;28;20473;-88
2022/08/19 07:33:55;;;;;;;28.80;25.80;;;22.20;99.90;;;;;;5059413;28;20452;-86
2022/08/19 07:36:27;;;;;;;31.90;28.73;;;22.20;99.90;;;;;;5056414;28;20555;-87
2022/08/19 07:38:55;;;;;;;29.30;26.53;;;22.10;99.90;;;;;;5056323;28;21069;-85
2022/08/19 07:41:26;;;;;;;30.70;27.70;;;22.10;99.90;;;;;;5059469;28;20469;-86
2022/08/19 07:43:55;;;;;;;28.10;25.40;;;22.10;99.90;;;;;;5054771;28;21015;-87
2022/08/19 07:57:16;;;;;;;26.77;24.40;;;22.00;99.90;;;;;;5006358;28;20495;-87
2022/08/19 08:03:19;;;;;;;32.37;27.73;;;22.00;99.90;;;;;;4968919;28;20463;-87
2022/08/19 08:11:19;;;;;;;30.33;27.17;;;21.80;99.90;;;;;;5072516;28;20524;-80
2022/08/19 08:13:45;;;;;;;28.30;25.87;;;21.70;99.90;;;;;;5077576;28;20440;-79
2022/08/19 08:16:12;;;;;;;30.40;27.50;;;21.70;99.90;;;;;;5069228;28;20445;-81
2022/08/19 08:18:41;;;;;;;31.97;29.07;;;21.70;99.90;;;;;;5063008;28;20440;-81
2022/08/19 08:21:09;;;;;;;29.27;26.57;;;21.60;99.90;;;;;;5065592;28;20526;-83
2022/08/19 08:23:37;;;;;;;30.73;27.83;;;21.70;99.90;;;;;;5057402;28;20455;-83
2022/08/19 08:26:04;;;;;;;30.33;27.30;;;21.60;99.90;;;;;;5060847;28;20452;-81
2022/08/19 08:28:31;;;;;;;28.20;25.57;;;21.70;99.90;;;;;;5076828;28;20425;-80
2022/08/19 08:30:58;;;;;;;28.60;25.87;;;21.70;99.90;;;;;;5077073;28;20457;-80
2022/08/19 08:33:29;;;;;;;29.00;26.43;;;21.70;99.90;;;;;;5072402;28;20502;-81
2022/08/19 08:35:56;;;;;;;29.60;26.60;;;21.70;99.90;;;;;;5068669;28;20452;-81
2022/08/19 08:38:23;;;;;;;27.67;24.93;;;21.70;99.90;;;;;;5070780;28;20484;-81
2022/08/19 08:40:56;;;;;;;30.60;27.40;;;21.70;99.90;;;;;;5060645;28;20465;-82
2022/08/19 08:43:30;;;;;;;32.30;29.20;;;21.70;99.90;;;;;;5058756;28;20467;-82
2022/08/19 08:46:03;;;;;;;30.60;27.67;;;21.70;99.90;;;;;;5059998;28;20447;-81
2022/08/19 08:48:39;;;;;;;29.33;26.50;;;21.90;99.90;;;;;;5061612;28;20456;-82
2022/08/19 08:51:11;;;;;;;30.10;27.23;;;22.20;99.90;;;;;;5057358;28;20487;-82
2022/08/19 08:53:38;;;;;;;29.20;26.40;;;22.50;99.90;;;;;;5020971;28;20449;-82
2022/08/19 08:56:12;;;;;;;26.60;24.10;;;22.70;99.90;;;;;;5031532;28;20442;-82
2022/08/19 08:58:48;;;;;;;28.90;26.30;;;23.00;99.90;;;;;;5031563;28;20513;-82
2022/08/19 09:01:15;;;;;;;27.93;25.43;;;23.30;99.90;;;;;;5043343;28;20485;-84
2022/08/19 09:03:45;;;;;;;28.20;25.50;;;23.70;99.90;;;;;;5037828;28;20503;-84
2022/08/19 09:06:21;;;;;;;25.90;23.27;;;23.90;99.90;;;;;;5024962;28;20443;-83
2022/08/19 09:08:55;;;;;;;26.60;24.10;;;24.10;99.90;;;;;;5024956;28;20431;-83
2022/08/19 09:11:37;;;;;;;27.30;24.77;;;24.10;99.90;;;;;;5031125;28;20458;-82
2022/08/19 09:14:14;;;;;;;26.00;23.80;;;24.20;99.90;;;;;;5025006;28;20438;-82
2022/08/19 09:16:41;;;;;;;25.27;22.97;;;24.00;99.90;;;;;;5017950;28;20476;-82
2022/08/19 09:19:10;;;;;;;25.73;23.43;;;23.90;99.90;;;;;;5022668;28;20449;-83
2022/08/19 09:21:39;;;;;;;26.50;24.10;;;23.60;99.90;;;;;;5025028;28;20509;-81
2022/08/19 09:24:06;;;;;;;25.33;23.13;;;23.40;99.90;;;;;;5033471;28;20482;-81
2022/08/19 09:26:34;;;;;;;24.47;22.40;;;23.10;99.90;;;;;;5026922;28;20449;-82
2022/08/19 09:29:04;;;;;;;26.20;23.77;;;23.00;99.90;;;;;;5023766;28;20463;-80
2022/08/19 09:31:32;;;;;;;27.97;25.43;;;22.90;99.90;;;;;;5032852;28;22022;-80
2022/08/19 09:33:59;;;;;;;25.90;23.57;;;22.90;99.90;;;;;;5047434;28;20433;-79
2022/08/19 09:36:32;;;;;;;25.03;22.73;;;22.80;99.90;;;;;;5050644;28;20434;-79
2022/08/19 09:38:59;;;;;;;28.37;25.87;;;22.80;99.90;;;;;;5044167;28;20770;-80
2022/08/19 09:41:26;;;;;;;26.83;24.50;;;22.80;99.90;;;;;;5031070;28;20465;-82
2022/08/19 09:43:57;;;;;;;25.97;23.77;;;22.80;99.90;;;;;;5037815;28;20446;-82
2022/08/19 09:46:25;;;;;;;24.70;22.47;;;22.80;99.90;;;;;;5024995;28;20434;-80
2022/08/19 09:48:53;;;;;;;24.80;22.60;;;22.80;99.90;;;;;;5026166;28;20438;-80
2022/08/19 09:51:22;;;;;;;27.33;23.80;;;22.80;99.90;;;;;;5027237;28;20473;-81
2022/08/19 09:53:50;;;;;;;24.40;22.33;;;22.80;99.90;;;;;;5040581;28;20446;-81
2022/08/19 09:56:18;;;;;;;24.33;21.97;;;22.80;99.90;;;;;;5040449;28;20446;-81
2022/08/19 09:58:46;;;;;;;24.80;22.73;;;22.90;99.90;;;;;;5027711;28;20484;-82
2022/08/19 10:01:19;;;;;;;26.00;23.50;;;22.80;99.90;;;;;;5027311;28;20489;-81
2022/08/19 10:03:49;;;;;;;25.87;23.70;;;22.80;99.90;;;;;;5025831;28;20441;-80
2022/08/19 10:06:19;;;;;;;25.20;22.80;;;22.80;99.90;;;;;;5024962;28;20520;-81
2022/08/19 10:08:46;;;;;;;24.50;21.97;;;22.80;99.90;;;;;;5024486;28;20443;-82
2022/08/19 10:11:15;;;;;;;22.77;20.73;;;22.70;99.90;;;;;;5023988;28;20454;-82
2022/08/19 10:13:43;;;;;;;25.10;22.87;;;22.70;99.90;;;;;;5028326;28;20503;-83
2022/08/19 10:16:13;;;;;;;23.80;21.67;;;22.60;99.90;;;;;;5025638;28;20519;-82
2022/08/19 10:18:43;;;;;;;22.93;20.90;;;22.60;99.90;;;;;;5037558;28;20492;-83
2022/08/19 10:21:13;;;;;;;23.03;21.13;;;22.50;99.90;;;;;;5030278;28;20554;-82
2022/08/19 10:23:44;;;;;;;22.30;20.30;;;22.60;99.90;;;;;;5032069;28;20429;-82
2022/08/19 10:26:13;;;;;;;23.00;21.00;;;22.60;99.90;;;;;;5025926;28;20759;-81
2022/08/19 10:28:40;;;;;;;22.47;20.60;;;22.70;99.90;;;;;;5032550;28;20434;-81
2022/08/19 10:31:08;;;;;;;24.20;21.73;;;22.80;99.90;;;;;;5023362;28;20480;-79
2022/08/19 10:33:36;;;;;;;25.23;22.93;;;22.90;99.90;;;;;;5022253;28;20446;-81
2022/08/19 10:36:07;;;;;;;24.07;21.87;;;23.00;99.90;;;;;;5023523;28;20438;-81
2022/08/19 10:38:33;;;;;;;23.30;21.00;;;23.10;99.90;;;;;;5022751;28;20479;-83
2022/08/19 10:41:08;;;;;;;22.73;20.53;;;23.20;99.90;;;;;;5024405;28;20485;-83
2022/08/19 10:43:37;;;;;;;22.73;20.43;;;23.20;99.90;;;;;;5030669;28;20812;-81
2022/08/19 10:46:05;;;;;;;21.67;19.47;;;23.30;99.90;;;;;;5030363;28;20446;-80
2022/08/19 10:48:32;;;;;;;20.73;19.03;;;23.30;99.90;;;;;;5025988;28;20450;-81
2022/08/19 10:53:45;;;;;;;20.53;18.80;;;23.60;99.90;;;;;;5032604;28;21081;-82
2022/08/19 10:58:58;;;;;;;20.27;18.40;;;23.60;99.90;;;;;;5029984;28;20478;-80
2022/08/19 11:01:25;;;;;;;19.23;17.40;;;23.60;99.90;;;;;;5032575;28;20528;-82
2022/08/19 11:03:52;;;;;;;19.77;18.07;;;23.50;99.90;;;;;;5026990;28;20434;-80
2022/08/19 11:06:20;;;;;;;18.90;17.20;;;23.40;99.90;;;;;;5026786;28;20447;-80
2022/08/19 11:08:49;;;;;;;16.43;15.03;;;23.30;99.90;;;;;;5028254;28;20475;-86
2022/08/19 11:11:16;;;;;;;17.73;16.13;;;23.30;99.90;;;;;;5025392;28;20458;-86
2022/08/19 11:13:45;;;;;;;15.47;14.30;;;23.30;99.90;;;;;;5029276;28;20837;-85
2022/08/19 11:16:14;;;;;;;16.00;14.70;;;23.30;99.90;;;;;;5027401;28;20492;-86
2022/08/19 11:18:45;;;;;;;16.40;14.90;;;23.40;99.90;;;;;;5035479;28;20889;-84
2022/08/19 11:21:16;;;;;;;14.73;13.27;;;23.40;99.90;;;;;;5025934;28;20831;-86
2022/08/19 11:23:43;;;;;;;14.03;12.70;;;23.40;99.90;;;;;;5018666;28;20477;-86
2022/08/19 11:26:12;;;;;;;13.50;12.40;;;23.50;99.90;;;;;;5022154;28;20440;-83
2022/08/19 11:28:53;;;;;;;14.67;13.20;;;23.60;99.90;;;;;;5027753;28;20442;-85
2022/08/19 11:31:24;;;;;;;13.80;12.60;;;23.70;99.90;;;;;;5031807;28;20454;-82
2022/08/19 11:33:53;;;;;;;14.07;12.57;;;23.70;99.90;;;;;;5047433;28;20439;-83
2022/08/19 11:36:21;;;;;;;12.00;10.87;;;23.80;99.90;;;;;;5043735;28;20501;-84
2022/08/19 11:38:48;;;;;;;12.60;11.50;;;23.90;99.90;;;;;;5046352;28;20498;-85
2022/08/19 11:41:18;;;;;;;12.77;11.77;;;24.10;99.90;;;;;;5047552;28;20447;-81
2022/08/19 11:43:45;;;;;;;27.90;25.40;;;24.30;99.90;;;;;;5043174;28;20455;-85
2022/08/19 11:46:14;;;;;;;27.77;24.93;;;24.20;99.90;;;;;;5032243;28;20442;-86
2022/08/19 11:48:42;;;;;;;30.57;27.60;;;24.00;99.90;;;;;;5034665;28;20438;-84
2022/08/19 11:51:11;;;;;;;35.77;32.13;;;23.80;99.90;;;;;;5028270;28;20657;-83
2022/08/19 11:53:39;;;;;;;38.70;34.90;;;23.70;99.90;;;;;;5044939;28;20442;-85
2022/08/19 11:56:07;;;;;;;36.30;32.87;;;23.60;99.90;;;;;;5043755;28;20426;-80
2022/08/19 11:58:36;;;;;;;35.70;32.30;;;23.40;99.90;;;;;;5049214;28;20510;-81
2022/08/19 12:01:07;;;;;;;35.60;32.23;;;23.20;99.90;;;;;;5046737;28;20454;-83
2022/08/19 12:03:34;;;;;;;37.20;33.77;;;23.10;99.90;;;;;;5029572;28;20473;-83
2022/08/19 12:06:05;;;;;;;37.40;33.67;;;23.10;99.90;;;;;;5025915;28;20435;-83
2022/08/19 12:08:32;;;;;;;38.10;34.43;;;23.10;99.90;;;;;;5031143;28;20462;-84
2022/08/19 12:11:00;;;;;;;38.13;34.50;;;23.00;99.90;;;;;;5032865;28;20466;-82
2022/08/19 12:13:28;;;;;;;37.70;34.20;;;22.90;99.90;;;;;;5047966;28;20453;-85
2022/08/19 12:15:56;;;;;;;35.43;32.17;;;22.90;99.90;;;;;;5043381;28;20450;-84
2022/08/19 12:18:24;;;;;;;35.97;32.30;;;22.90;99.90;;;;;;5049652;23;20502;-86
2022/08/19 12:20:52;;;;;;;36.07;32.67;;;22.80;99.90;;;;;;5036526;28;20903;-85
2022/08/19 12:23:19;;;;;;;34.03;30.77;;;22.80;99.90;;;;;;5034872;28;20468;-86
2022/08/19 12:25:49;;;;;;;33.90;30.70;;;22.70;99.90;;;;;;5028151;28;20438;-84
2022/08/19 12:28:16;;;;;;;35.80;32.50;;;22.80;99.90;;;;;;5034182;28;20461;-84
2022/08/19 12:30:43;;;;;;;35.30;31.60;;;22.70;99.90;;;;;;5048857;28;20437;-84
2022/08/19 12:33:13;;;;;;;36.07;32.47;;;22.70;99.90;;;;;;5051318;28;20432;-83
2022/08/19 12:35:41;;;;;;;37.03;33.53;;;22.80;99.90;;;;;;5047846;28;20446;-84
2022/08/19 12:38:07;;;;;;;37.87;34.10;;;22.80;99.90;;;;;;5051756;28;20507;-83
2022/08/19 12:40:34;;;;;;;39.90;35.70;;;22.70;99.90;;;;;;5053502;28;20444;-84
2022/08/19 12:43:01;;;;;;;35.93;32.57;;;22.70;99.90;;;;;;5055182;28;20524;-84
2022/08/19 12:45:28;;;;;;;36.30;32.90;;;22.70;99.90;;;;;;5052443;28;20449;-84
2022/08/19 12:47:54;;;;;;;38.77;35.03;;;22.60;99.90;;;;;;5060038;28;20444;-83
2022/08/19 12:50:23;;;;;;;40.03;34.47;;;22.60;99.90;;;;;;5075699;28;20463;-83
2022/08/19 12:52:49;;;;;;;37.63;33.70;;;22.60;99.90;;;;;;5070403;28;20445;-83
2022/08/19 12:55:18;;;;;;;38.40;34.40;;;22.50;99.90;;;;;;5076778;28;20475;-82
2022/08/19 12:57:45;;;;;;;41.17;37.17;;;22.60;99.90;;;;;;5077206;28;20477;-83
2022/08/19 13:00:14;;;;;;;36.10;32.60;;;22.70;99.90;;;;;;5076909;28;20432;-83
2022/08/19 13:02:43;;;;;;;37.50;33.90;;;22.70;99.90;;;;;;5061329;28;20950;-84
2022/08/19 13:05:14;;;;;;;37.30;33.70;;;22.80;99.90;;;;;;5057200;28;20902;-83
2022/08/19 13:07:43;;;;;;;35.60;32.20;;;22.80;99.90;;;;;;5056403;28;20445;-84
2022/08/19 13:10:12;;;;;;;39.33;35.80;;;22.80;99.90;;;;;;5059912;28;20828;-84
2022/08/19 13:12:40;;;;;;;37.60;34.07;;;22.90;99.90;;;;;;5060302;28;20483;-83
2022/08/19 13:15:08;;;;;;;36.40;33.00;;;22.90;99.90;;;;;;5060923;28;20449;-84